Asbury Park, New Jersey
Current Conditions -  °F | °C
As of 6:55 PM on Monday 20 Oct 2014 (Local Time) from KBLM Reporting Station
Clear Clear  
Wind Chill: 55°   Ceiling: Unl
Heat Index: 55°   Visibility: 10mi
Dew Point: 37°   Wind: 0mph
Humidity: 51%   Direction: NA
Pressure: 29.98"   Gusts: NA
Location:  40.22°N, 74.01°W
Report Text: KBLM 202255Z AUTO 00000KT 10SM CLR 13/03 A2998 RMK AO1
Loading
Personal Weather Stations






























Interactive Weather Map New forecast layout! Learn more

10-Day Weather Forecast

Advertisements
Track Severe Weather on mobile